sensor_id;sensor_type;location;lat;lon;timestamp;P1;durP1;ratioP1;P2;durP2;ratioP2
7983;SDS011;4037;47.980;10.172;2023-02-28T00:00:06;5.97;;;5.37;;
7983;SDS011;4037;47.980;10.172;2023-02-28T00:02:36;10.13;;;5.67;;
7983;SDS011;4037;47.980;10.172;2023-02-28T00:05:02;5.70;;;4.47;;
7983;SDS011;4037;47.980;10.172;2023-02-28T00:07:31;7.93;;;4.33;;
7983;SDS011;4037;47.980;10.172;2023-02-28T00:09:57;7.07;;;4.70;;
7983;SDS011;4037;47.980;10.172;2023-02-28T00:12:23;4.47;;;4.07;;
7983;SDS011;4037;47.980;10.172;2023-02-28T00:14:50;7.13;;;5.13;;
7983;SDS011;4037;47.980;10.172;2023-02-28T00:17:16;4.97;;;4.47;;
7983;SDS011;4037;47.980;10.172;2023-02-28T00:19:49;5.93;;;4.80;;
7983;SDS011;4037;47.980;10.172;2023-02-28T00:22:16;4.67;;;3.53;;
7983;SDS011;4037;47.980;10.172;2023-02-28T00:24:42;8.73;;;4.80;;
7983;SDS011;4037;47.980;10.172;2023-02-28T00:27:08;5.13;;;3.97;;
7983;SDS011;4037;47.980;10.172;2023-02-28T00:29:35;4.77;;;4.10;;
7983;SDS011;4037;47.980;10.172;2023-02-28T00:32:01;4.63;;;4.23;;
7983;SDS011;4037;47.980;10.172;2023-02-28T00:34:27;9.50;;;4.80;;
7983;SDS011;4037;47.980;10.172;2023-02-28T00:36:53;6.00;;;4.00;;
7983;SDS011;4037;47.980;10.172;2023-02-28T00:39:19;5.43;;;4.20;;
7983;SDS011;4037;47.980;10.172;2023-02-28T00:41:45;5.07;;;4.43;;
7983;SDS011;4037;47.980;10.172;2023-02-28T00:44:11;6.83;;;4.80;;
7983;SDS011;4037;47.980;10.172;2023-02-28T00:46:37;4.83;;;3.87;;
7983;SDS011;4037;47.980;10.172;2023-02-28T00:49:03;6.77;;;4.30;;
7983;SDS011;4037;47.980;10.172;2023-02-28T00:51:29;4.03;;;3.70;;
7983;SDS011;4037;47.980;10.172;2023-02-28T00:53:55;4.43;;;3.90;;
7983;SDS011;4037;47.980;10.172;2023-02-28T00:56:21;4.30;;;3.90;;
7983;SDS011;4037;47.980;10.172;2023-02-28T00:58:47;4.97;;;4.13;;
7983;SDS011;4037;47.980;10.172;2023-02-28T01:01:13;5.70;;;4.20;;
7983;SDS011;4037;47.980;10.172;2023-02-28T01:03:39;6.07;;;3.90;;
7983;SDS011;4037;47.980;10.172;2023-02-28T01:06:05;7.00;;;4.40;;
7983;SDS011;4037;47.980;10.172;2023-02-28T01:08:31;6.07;;;4.27;;
7983;SDS011;4037;47.980;10.172;2023-02-28T01:10:57;5.73;;;4.27;;
7983;SDS011;4037;47.980;10.172;2023-02-28T01:13:23;5.17;;;3.97;;
7983;SDS011;4037;47.980;10.172;2023-02-28T01:15:51;4.37;;;3.73;;
7983;SDS011;4037;47.980;10.172;2023-02-28T01:18:17;4.93;;;4.40;;
7983;SDS011;4037;47.980;10.172;2023-02-28T01:20:43;4.40;;;3.77;;
7983;SDS011;4037;47.980;10.172;2023-02-28T01:23:11;6.63;;;4.13;;
7983;SDS011;4037;47.980;10.172;2023-02-28T01:25:37;5.50;;;5.00;;
7983;SDS011;4037;47.980;10.172;2023-02-28T01:28:04;5.53;;;4.63;;
7983;SDS011;4037;47.980;10.172;2023-02-28T01:30:30;5.47;;;4.23;;
7983;SDS011;4037;47.980;10.172;2023-02-28T01:32:57;5.40;;;4.37;;
7983;SDS011;4037;47.980;10.172;2023-02-28T01:35:23;5.00;;;4.07;;
7983;SDS011;4037;47.980;10.172;2023-02-28T01:37:49;5.13;;;4.37;;
7983;SDS011;4037;47.980;10.172;2023-02-28T01:40:15;5.30;;;4.10;;
7983;SDS011;4037;47.980;10.172;2023-02-28T01:42:41;4.43;;;3.80;;
7983;SDS011;4037;47.980;10.172;2023-02-28T01:47:45;4.83;;;4.33;;
7983;SDS011;4037;47.980;10.172;2023-02-28T01:50:13;5.27;;;4.17;;
7983;SDS011;4037;47.980;10.172;2023-02-28T01:52:40;5.13;;;4.63;;
7983;SDS011;4037;47.980;10.172;2023-02-28T01:55:06;5.50;;;4.90;;
7983;SDS011;4037;47.980;10.172;2023-02-28T01:57:34;5.67;;;4.47;;
7983;SDS011;4037;47.980;10.172;2023-02-28T02:00:09;5.03;;;4.40;;
7983;SDS011;4037;47.980;10.172;2023-02-28T02:02:38;6.97;;;4.93;;
7983;SDS011;4037;47.980;10.172;2023-02-28T02:05:06;6.03;;;4.93;;
7983;SDS011;4037;47.980;10.172;2023-02-28T02:07:33;5.67;;;4.80;;
7983;SDS011;4037;47.980;10.172;2023-02-28T02:10:24;4.80;;;4.27;;
7983;SDS011;4037;47.980;10.172;2023-02-28T02:15:16;5.27;;;4.60;;
7983;SDS011;4037;47.980;10.172;2023-02-28T02:17:45;5.40;;;4.50;;
7983;SDS011;4037;47.980;10.172;2023-02-28T02:22:58;6.33;;;5.00;;
7983;SDS011;4037;47.980;10.172;2023-02-28T02:25:29;6.87;;;5.03;;
7983;SDS011;4037;47.980;10.172;2023-02-28T02:31:10;6.70;;;5.20;;
7983;SDS011;4037;47.980;10.172;2023-02-28T02:36:24;6.03;;;4.90;;
7983;SDS011;4037;47.980;10.172;2023-02-28T02:41:26;6.43;;;5.20;;
7983;SDS011;4037;47.980;10.172;2023-02-28T02:43:58;5.73;;;5.17;;
7983;SDS011;4037;47.980;10.172;2023-02-28T02:46:28;7.97;;;5.20;;
7983;SDS011;4037;47.980;10.172;2023-02-28T02:48:55;6.93;;;5.33;;
7983;SDS011;4037;47.980;10.172;2023-02-28T02:51:23;7.70;;;5.10;;
7983;SDS011;4037;47.980;10.172;2023-02-28T02:56:19;8.90;;;5.03;;
7983;SDS011;4037;47.980;10.172;2023-02-28T02:58:47;7.77;;;4.60;;
7983;SDS011;4037;47.980;10.172;2023-02-28T03:01:15;7.17;;;5.97;;
7983;SDS011;4037;47.980;10.172;2023-02-28T03:03:53;7.43;;;5.60;;
7983;SDS011;4037;47.980;10.172;2023-02-28T03:06:19;6.47;;;5.60;;
7983;SDS011;4037;47.980;10.172;2023-02-28T03:08:45;8.43;;;5.83;;
7983;SDS011;4037;47.980;10.172;2023-02-28T03:11:12;7.70;;;6.40;;
7983;SDS011;4037;47.980;10.172;2023-02-28T03:13:54;7.43;;;5.70;;
7983;SDS011;4037;47.980;10.172;2023-02-28T03:19:30;7.57;;;6.20;;
7983;SDS011;4037;47.980;10.172;2023-02-28T03:24:55;8.57;;;6.33;;
7983;SDS011;4037;47.980;10.172;2023-02-28T03:27:27;7.27;;;6.17;;
7983;SDS011;4037;47.980;10.172;2023-02-28T03:35:20;7.97;;;6.27;;
7983;SDS011;4037;47.980;10.172;2023-02-28T03:37:48;9.40;;;6.50;;
7983;SDS011;4037;47.980;10.172;2023-02-28T03:40:19;6.13;;;5.30;;
7983;SDS011;4037;47.980;10.172;2023-02-28T03:42:48;6.43;;;5.53;;
7983;SDS011;4037;47.980;10.172;2023-02-28T03:45:19;7.90;;;6.07;;
7983;SDS011;4037;47.980;10.172;2023-02-28T03:52:42;7.23;;;6.20;;
7983;SDS011;4037;47.980;10.172;2023-02-28T03:55:10;7.80;;;5.77;;
7983;SDS011;4037;47.980;10.172;2023-02-28T03:57:43;8.13;;;5.90;;
7983;SDS011;4037;47.980;10.172;2023-02-28T04:00:12;9.03;;;6.27;;
7983;SDS011;4037;47.980;10.172;2023-02-28T04:02:39;7.27;;;5.37;;
7983;SDS011;4037;47.980;10.172;2023-02-28T04:05:06;6.40;;;5.80;;
7983;SDS011;4037;47.980;10.172;2023-02-28T04:07:32;6.87;;;6.17;;
7983;SDS011;4037;47.980;10.172;2023-02-28T04:09:58;7.67;;;5.70;;
7983;SDS011;4037;47.980;10.172;2023-02-28T04:12:24;6.47;;;5.70;;
7983;SDS011;4037;47.980;10.172;2023-02-28T04:14:50;6.97;;;6.20;;
7983;SDS011;4037;47.980;10.172;2023-02-28T04:17:16;8.47;;;5.87;;
7983;SDS011;4037;47.980;10.172;2023-02-28T04:19:43;7.63;;;5.67;;
7983;SDS011;4037;47.980;10.172;2023-02-28T04:22:09;9.13;;;6.60;;
7983;SDS011;4037;47.980;10.172;2023-02-28T04:24:35;8.03;;;7.10;;
7983;SDS011;4037;47.980;10.172;2023-02-28T04:27:02;8.10;;;6.83;;
7983;SDS011;4037;47.980;10.172;2023-02-28T04:29:31;7.80;;;6.37;;
7983;SDS011;4037;47.980;10.172;2023-02-28T04:31:57;8.27;;;6.63;;
7983;SDS011;4037;47.980;10.172;2023-02-28T04:34:24;7.83;;;6.20;;
7983;SDS011;4037;47.980;10.172;2023-02-28T04:36:50;7.80;;;6.43;;
7983;SDS011;4037;47.980;10.172;2023-02-28T04:39:18;10.10;;;7.37;;
7983;SDS011;4037;47.980;10.172;2023-02-28T04:41:45;9.27;;;7.10;;
7983;SDS011;4037;47.980;10.172;2023-02-28T04:44:11;9.03;;;7.10;;
7983;SDS011;4037;47.980;10.172;2023-02-28T04:46:37;9.50;;;6.30;;
7983;SDS011;4037;47.980;10.172;2023-02-28T04:49:03;9.03;;;7.87;;
7983;SDS011;4037;47.980;10.172;2023-02-28T04:51:29;11.40;;;7.47;;
7983;SDS011;4037;47.980;10.172;2023-02-28T04:53:55;9.07;;;6.67;;
7983;SDS011;4037;47.980;10.172;2023-02-28T04:56:21;8.03;;;7.10;;
7983;SDS011;4037;47.980;10.172;2023-02-28T04:58:48;10.67;;;7.57;;
7983;SDS011;4037;47.980;10.172;2023-02-28T05:01:35;10.37;;;7.63;;
7983;SDS011;4037;47.980;10.172;2023-02-28T05:04:01;9.60;;;6.97;;
7983;SDS011;4037;47.980;10.172;2023-02-28T05:06:28;8.10;;;6.60;;
7983;SDS011;4037;47.980;10.172;2023-02-28T05:08:55;10.03;;;7.27;;
7983;SDS011;4037;47.980;10.172;2023-02-28T05:11:23;12.13;;;7.23;;
7983;SDS011;4037;47.980;10.172;2023-02-28T05:13:50;8.80;;;7.63;;
7983;SDS011;4037;47.980;10.172;2023-02-28T05:16:17;9.63;;;7.87;;
7983;SDS011;4037;47.980;10.172;2023-02-28T05:18:43;8.67;;;7.60;;
7983;SDS011;4037;47.980;10.172;2023-02-28T05:21:52;11.03;;;7.97;;
7983;SDS011;4037;47.980;10.172;2023-02-28T05:24:03;10.23;;;7.33;;
7983;SDS011;4037;47.980;10.172;2023-02-28T05:26:29;10.63;;;7.90;;
7983;SDS011;4037;47.980;10.172;2023-02-28T05:28:55;10.87;;;8.10;;
7983;SDS011;4037;47.980;10.172;2023-02-28T05:31:22;8.97;;;7.60;;
7983;SDS011;4037;47.980;10.172;2023-02-28T05:33:48;8.90;;;8.00;;
7983;SDS011;4037;47.980;10.172;2023-02-28T05:36:14;9.87;;;8.23;;
7983;SDS011;4037;47.980;10.172;2023-02-28T05:38:40;9.30;;;7.63;;
7983;SDS011;4037;47.980;10.172;2023-02-28T05:41:09;11.80;;;9.13;;
7983;SDS011;4037;47.980;10.172;2023-02-28T05:43:36;11.30;;;8.90;;
7983;SDS011;4037;47.980;10.172;2023-02-28T05:46:06;9.73;;;7.60;;
7983;SDS011;4037;47.980;10.172;2023-02-28T05:48:33;10.80;;;8.50;;
7983;SDS011;4037;47.980;10.172;2023-02-28T05:50:59;12.90;;;8.37;;
7983;SDS011;4037;47.980;10.172;2023-02-28T05:53:25;11.70;;;8.77;;
7983;SDS011;4037;47.980;10.172;2023-02-28T05:55:51;11.53;;;8.77;;
7983;SDS011;4037;47.980;10.172;2023-02-28T05:58:17;13.47;;;8.80;;
7983;SDS011;4037;47.980;10.172;2023-02-28T06:00:43;12.20;;;8.73;;
7983;SDS011;4037;47.980;10.172;2023-02-28T06:03:10;11.37;;;8.70;;
7983;SDS011;4037;47.980;10.172;2023-02-28T06:05:36;11.43;;;9.07;;
7983;SDS011;4037;47.980;10.172;2023-02-28T06:08:03;12.20;;;8.90;;
7983;SDS011;4037;47.980;10.172;2023-02-28T06:10:31;11.97;;;9.10;;
7983;SDS011;4037;47.980;10.172;2023-02-28T06:12:59;12.97;;;9.50;;
7983;SDS011;4037;47.980;10.172;2023-02-28T06:15:27;13.73;;;9.53;;
7983;SDS011;4037;47.980;10.172;2023-02-28T06:17:53;13.00;;;9.57;;
7983;SDS011;4037;47.980;10.172;2023-02-28T06:20:21;13.83;;;9.43;;
7983;SDS011;4037;47.980;10.172;2023-02-28T06:22:47;14.63;;;10.30;;
7983;SDS011;4037;47.980;10.172;2023-02-28T06:25:15;14.17;;;10.93;;
7983;SDS011;4037;47.980;10.172;2023-02-28T06:27:41;18.17;;;12.33;;
7983;SDS011;4037;47.980;10.172;2023-02-28T06:30:08;19.60;;;12.37;;
7983;SDS011;4037;47.980;10.172;2023-02-28T06:32:34;29.33;;;18.70;;
7983;SDS011;4037;47.980;10.172;2023-02-28T06:35:01;29.77;;;18.17;;
7983;SDS011;4037;47.980;10.172;2023-02-28T06:37:27;19.87;;;13.47;;
7983;SDS011;4037;47.980;10.172;2023-02-28T06:39:53;17.17;;;12.27;;
7983;SDS011;4037;47.980;10.172;2023-02-28T06:42:21;13.90;;;10.67;;
7983;SDS011;4037;47.980;10.172;2023-02-28T06:44:49;13.93;;;11.00;;
7983;SDS011;4037;47.980;10.172;2023-02-28T06:47:15;17.77;;;12.70;;
7983;SDS011;4037;47.980;10.172;2023-02-28T06:49:41;15.97;;;11.60;;
7983;SDS011;4037;47.980;10.172;2023-02-28T06:52:10;19.07;;;12.43;;
7983;SDS011;4037;47.980;10.172;2023-02-28T06:54:36;17.40;;;12.97;;
7983;SDS011;4037;47.980;10.172;2023-02-28T06:57:02;18.23;;;13.63;;
7983;SDS011;4037;47.980;10.172;2023-02-28T06:59:28;16.13;;;12.80;;
7983;SDS011;4037;47.980;10.172;2023-02-28T07:01:54;20.63;;;13.97;;
7983;SDS011;4037;47.980;10.172;2023-02-28T07:04:21;17.63;;;12.43;;
7983;SDS011;4037;47.980;10.172;2023-02-28T07:06:47;16.80;;;12.33;;
7983;SDS011;4037;47.980;10.172;2023-02-28T07:09:13;18.00;;;12.53;;
7983;SDS011;4037;47.980;10.172;2023-02-28T07:11:40;15.53;;;11.40;;
7983;SDS011;4037;47.980;10.172;2023-02-28T07:14:08;16.63;;;11.47;;
7983;SDS011;4037;47.980;10.172;2023-02-28T07:16:34;16.40;;;12.27;;
7983;SDS011;4037;47.980;10.172;2023-02-28T07:19:00;18.27;;;11.97;;
7983;SDS011;4037;47.980;10.172;2023-02-28T07:21:26;14.17;;;10.70;;
7983;SDS011;4037;47.980;10.172;2023-02-28T07:23:52;15.47;;;10.63;;
7983;SDS011;4037;47.980;10.172;2023-02-28T07:26:19;18.93;;;12.20;;
7983;SDS011;4037;47.980;10.172;2023-02-28T07:28:45;16.80;;;11.20;;
7983;SDS011;4037;47.980;10.172;2023-02-28T07:31:12;15.00;;;12.10;;
7983;SDS011;4037;47.980;10.172;2023-02-28T07:33:39;15.97;;;11.47;;
7983;SDS011;4037;47.980;10.172;2023-02-28T07:36:14;20.60;;;12.60;;
7983;SDS011;4037;47.980;10.172;2023-02-28T07:38:42;17.53;;;11.97;;
7983;SDS011;4037;47.980;10.172;2023-02-28T07:41:09;15.23;;;11.43;;
7983;SDS011;4037;47.980;10.172;2023-02-28T07:43:35;16.60;;;11.67;;
7983;SDS011;4037;47.980;10.172;2023-02-28T07:46:02;15.33;;;11.67;;
7983;SDS011;4037;47.980;10.172;2023-02-28T07:48:28;16.77;;;11.03;;
7983;SDS011;4037;47.980;10.172;2023-02-28T07:50:55;15.63;;;11.47;;
7983;SDS011;4037;47.980;10.172;2023-02-28T07:53:21;15.63;;;11.03;;
7983;SDS011;4037;47.980;10.172;2023-02-28T07:55:47;15.97;;;12.33;;
7983;SDS011;4037;47.980;10.172;2023-02-28T07:58:13;19.17;;;12.27;;
7983;SDS011;4037;47.980;10.172;2023-02-28T08:00:40;14.90;;;11.00;;
7983;SDS011;4037;47.980;10.172;2023-02-28T08:03:06;18.43;;;12.67;;
7983;SDS011;4037;47.980;10.172;2023-02-28T08:05:31;16.30;;;11.60;;
7983;SDS011;4037;47.980;10.172;2023-02-28T08:07:57;18.73;;;12.70;;
7983;SDS011;4037;47.980;10.172;2023-02-28T08:10:24;15.97;;;12.30;;
7983;SDS011;4037;47.980;10.172;2023-02-28T08:12:50;18.93;;;13.03;;
7983;SDS011;4037;47.980;10.172;2023-02-28T08:15:16;20.87;;;13.57;;
7983;SDS011;4037;47.980;10.172;2023-02-28T08:17:42;15.17;;;11.90;;
7983;SDS011;4037;47.980;10.172;2023-02-28T08:20:08;15.40;;;11.87;;
7983;SDS011;4037;47.980;10.172;2023-02-28T08:22:35;19.20;;;12.33;;
7983;SDS011;4037;47.980;10.172;2023-02-28T08:25:01;17.07;;;12.03;;
7983;SDS011;4037;47.980;10.172;2023-02-28T08:27:27;18.17;;;12.37;;
7983;SDS011;4037;47.980;10.172;2023-02-28T08:29:53;17.40;;;12.60;;
7983;SDS011;4037;47.980;10.172;2023-02-28T08:32:19;16.07;;;12.60;;
7983;SDS011;4037;47.980;10.172;2023-02-28T08:34:45;16.03;;;12.03;;
7983;SDS011;4037;47.980;10.172;2023-02-28T08:37:11;15.97;;;11.90;;
7983;SDS011;4037;47.980;10.172;2023-02-28T08:39:37;19.33;;;12.80;;
7983;SDS011;4037;47.980;10.172;2023-02-28T08:42:03;17.70;;;12.57;;
7983;SDS011;4037;47.980;10.172;2023-02-28T08:44:29;14.13;;;10.90;;
7983;SDS011;4037;47.980;10.172;2023-02-28T08:46:55;15.47;;;11.87;;
7983;SDS011;4037;47.980;10.172;2023-02-28T08:49:21;16.47;;;12.83;;
7983;SDS011;4037;47.980;10.172;2023-02-28T08:51:47;16.37;;;12.20;;
7983;SDS011;4037;47.980;10.172;2023-02-28T08:54:13;17.47;;;12.80;;
7983;SDS011;4037;47.980;10.172;2023-02-28T08:56:44;17.47;;;12.70;;
7983;SDS011;4037;47.980;10.172;2023-02-28T08:59:11;18.27;;;13.03;;
7983;SDS011;4037;47.980;10.172;2023-02-28T09:01:37;19.00;;;14.00;;
7983;SDS011;4037;47.980;10.172;2023-02-28T09:04:03;19.13;;;13.07;;
7983;SDS011;4037;47.980;10.172;2023-02-28T09:06:29;15.27;;;12.10;;
7983;SDS011;4037;47.980;10.172;2023-02-28T09:08:58;17.07;;;12.77;;
7983;SDS011;4037;47.980;10.172;2023-02-28T09:11:26;22.50;;;13.03;;
7983;SDS011;4037;47.980;10.172;2023-02-28T09:13:52;17.40;;;13.37;;
7983;SDS011;4037;47.980;10.172;2023-02-28T09:16:18;17.03;;;11.33;;
7983;SDS011;4037;47.980;10.172;2023-02-28T09:18:44;18.83;;;13.40;;
7983;SDS011;4037;47.980;10.172;2023-02-28T09:21:11;16.87;;;13.07;;
7983;SDS011;4037;47.980;10.172;2023-02-28T09:23:39;15.83;;;12.13;;
7983;SDS011;4037;47.980;10.172;2023-02-28T09:26:05;19.80;;;13.43;;
7983;SDS011;4037;47.980;10.172;2023-02-28T09:28:31;17.83;;;12.53;;
7983;SDS011;4037;47.980;10.172;2023-02-28T09:30:57;16.10;;;12.37;;
7983;SDS011;4037;47.980;10.172;2023-02-28T09:33:24;17.07;;;13.20;;
7983;SDS011;4037;47.980;10.172;2023-02-28T09:35:50;18.10;;;12.80;;
7983;SDS011;4037;47.980;10.172;2023-02-28T09:38:17;18.60;;;12.90;;
7983;SDS011;4037;47.980;10.172;2023-02-28T09:40:56;16.70;;;13.10;;
7983;SDS011;4037;47.980;10.172;2023-02-28T09:43:23;17.60;;;12.13;;
7983;SDS011;4037;47.980;10.172;2023-02-28T09:45:55;17.83;;;12.70;;
7983;SDS011;4037;47.980;10.172;2023-02-28T09:48:26;19.27;;;13.47;;
7983;SDS011;4037;47.980;10.172;2023-02-28T09:50:55;19.97;;;12.77;;
7983;SDS011;4037;47.980;10.172;2023-02-28T09:53:29;21.80;;;13.77;;
7983;SDS011;4037;47.980;10.172;2023-02-28T09:56:04;15.63;;;12.80;;
7983;SDS011;4037;47.980;10.172;2023-02-28T09:58:35;16.57;;;12.80;;
7983;SDS011;4037;47.980;10.172;2023-02-28T10:01:05;17.13;;;12.87;;
7983;SDS011;4037;47.980;10.172;2023-02-28T10:03:35;20.40;;;12.97;;
7983;SDS011;4037;47.980;10.172;2023-02-28T10:08:39;18.23;;;13.20;;
7983;SDS011;4037;47.980;10.172;2023-02-28T10:11:10;16.50;;;12.23;;
7983;SDS011;4037;47.980;10.172;2023-02-28T10:21:57;16.80;;;12.17;;
7983;SDS011;4037;47.980;10.172;2023-02-28T10:27:01;21.33;;;13.27;;
7983;SDS011;4037;47.980;10.172;2023-02-28T10:29:31;21.07;;;13.57;;
7983;SDS011;4037;47.980;10.172;2023-02-28T10:31:58;18.53;;;13.33;;
7983;SDS011;4037;47.980;10.172;2023-02-28T10:34:26;21.03;;;13.60;;
7983;SDS011;4037;47.980;10.172;2023-02-28T10:36:52;18.70;;;14.37;;
7983;SDS011;4037;47.980;10.172;2023-02-28T10:39:35;20.80;;;14.90;;
7983;SDS011;4037;47.980;10.172;2023-02-28T10:42:02;16.27;;;11.90;;
7983;SDS011;4037;47.980;10.172;2023-02-28T10:44:28;17.37;;;13.33;;
7983;SDS011;4037;47.980;10.172;2023-02-28T10:46:54;19.83;;;14.00;;
7983;SDS011;4037;47.980;10.172;2023-02-28T10:49:22;23.23;;;16.37;;
7983;SDS011;4037;47.980;10.172;2023-02-28T10:51:49;21.63;;;14.07;;
7983;SDS011;4037;47.980;10.172;2023-02-28T10:54:50;19.37;;;13.20;;
7983;SDS011;4037;47.980;10.172;2023-02-28T10:57:20;16.37;;;12.90;;
7983;SDS011;4037;47.980;10.172;2023-02-28T10:59:50;19.83;;;13.57;;
7983;SDS011;4037;47.980;10.172;2023-02-28T11:02:31;19.67;;;14.23;;
7983;SDS011;4037;47.980;10.172;2023-02-28T11:04:57;19.13;;;14.17;;
7983;SDS011;4037;47.980;10.172;2023-02-28T11:07:23;15.43;;;12.97;;
7983;SDS011;4037;47.980;10.172;2023-02-28T11:09:55;17.50;;;13.43;;
7983;SDS011;4037;47.980;10.172;2023-02-28T11:12:26;18.20;;;13.23;;
7983;SDS011;4037;47.980;10.172;2023-02-28T11:14:54;18.17;;;13.50;;
7983;SDS011;4037;47.980;10.172;2023-02-28T11:17:30;18.70;;;12.93;;
7983;SDS011;4037;47.980;10.172;2023-02-28T11:19:58;17.33;;;13.40;;
7983;SDS011;4037;47.980;10.172;2023-02-28T11:22:28;18.97;;;12.93;;
7983;SDS011;4037;47.980;10.172;2023-02-28T11:24:56;18.40;;;13.17;;
7983;SDS011;4037;47.980;10.172;2023-02-28T11:27:39;17.17;;;13.43;;
7983;SDS011;4037;47.980;10.172;2023-02-28T11:30:22;19.87;;;14.20;;
7983;SDS011;4037;47.980;10.172;2023-02-28T11:32:49;18.43;;;14.67;;
7983;SDS011;4037;47.980;10.172;2023-02-28T11:35:17;21.97;;;14.13;;
7983;SDS011;4037;47.980;10.172;2023-02-28T11:37:47;19.20;;;12.87;;
7983;SDS011;4037;47.980;10.172;2023-02-28T11:43:08;22.17;;;14.47;;
7983;SDS011;4037;47.980;10.172;2023-02-28T11:53:37;16.60;;;12.93;;
7983;SDS011;4037;47.980;10.172;2023-02-28T12:01:20;19.47;;;14.87;;
7983;SDS011;4037;47.980;10.172;2023-02-28T12:06:33;20.47;;;15.13;;
7983;SDS011;4037;47.980;10.172;2023-02-28T12:09:23;20.83;;;15.90;;
7983;SDS011;4037;47.980;10.172;2023-02-28T12:12:00;24.90;;;17.73;;
7983;SDS011;4037;47.980;10.172;2023-02-28T12:17:21;23.97;;;16.93;;
7983;SDS011;4037;47.980;10.172;2023-02-28T12:22:42;22.17;;;16.77;;
7983;SDS011;4037;47.980;10.172;2023-02-28T12:27:40;23.17;;;17.27;;
7983;SDS011;4037;47.980;10.172;2023-02-28T12:32:51;25.40;;;17.07;;
7983;SDS011;4037;47.980;10.172;2023-02-28T12:35:20;23.23;;;17.00;;
7983;SDS011;4037;47.980;10.172;2023-02-28T12:40:34;23.80;;;16.60;;
7983;SDS011;4037;47.980;10.172;2023-02-28T12:43:07;29.43;;;18.23;;
7983;SDS011;4037;47.980;10.172;2023-02-28T12:48:22;25.80;;;17.30;;
7983;SDS011;4037;47.980;10.172;2023-02-28T12:50:50;23.90;;;16.73;;
7983;SDS011;4037;47.980;10.172;2023-02-28T12:53:27;25.50;;;17.43;;
7983;SDS011;4037;47.980;10.172;2023-02-28T12:56:08;25.50;;;17.73;;
7983;SDS011;4037;47.980;10.172;2023-02-28T12:58:40;23.43;;;16.93;;
7983;SDS011;4037;47.980;10.172;2023-02-28T13:10:59;28.73;;;18.07;;
7983;SDS011;4037;47.980;10.172;2023-02-28T13:13:26;31.27;;;19.13;;
7983;SDS011;4037;47.980;10.172;2023-02-28T13:21:02;24.73;;;16.80;;
7983;SDS011;4037;47.980;10.172;2023-02-28T13:23:38;21.50;;;15.73;;
7983;SDS011;4037;47.980;10.172;2023-02-28T13:26:05;23.20;;;16.73;;
7983;SDS011;4037;47.980;10.172;2023-02-28T13:31:20;27.23;;;18.17;;
7983;SDS011;4037;47.980;10.172;2023-02-28T13:46:30;24.87;;;16.73;;
7983;SDS011;4037;47.980;10.172;2023-02-28T13:48:56;19.63;;;14.57;;
7983;SDS011;4037;47.980;10.172;2023-02-28T13:53:57;20.20;;;15.87;;
7983;SDS011;4037;47.980;10.172;2023-02-28T13:56:40;19.63;;;15.43;;
7983;SDS011;4037;47.980;10.172;2023-02-28T13:59:16;17.63;;;14.00;;
7983;SDS011;4037;47.980;10.172;2023-02-28T14:06:59;23.00;;;14.60;;
7983;SDS011;4037;47.980;10.172;2023-02-28T14:09:34;20.70;;;15.03;;
7983;SDS011;4037;47.980;10.172;2023-02-28T14:17:15;20.63;;;15.23;;
7983;SDS011;4037;47.980;10.172;2023-02-28T14:19:43;20.60;;;15.63;;
7983;SDS011;4037;47.980;10.172;2023-02-28T14:34:43;16.63;;;14.13;;
7983;SDS011;4037;47.980;10.172;2023-02-28T14:37:26;17.43;;;13.90;;
7983;SDS011;4037;47.980;10.172;2023-02-28T14:39:52;23.60;;;16.77;;
7983;SDS011;4037;47.980;10.172;2023-02-28T14:44:56;18.63;;;14.30;;
7983;SDS011;4037;47.980;10.172;2023-02-28T14:47:22;19.80;;;14.87;;
7983;SDS011;4037;47.980;10.172;2023-02-28T14:49:49;19.17;;;15.63;;
7983;SDS011;4037;47.980;10.172;2023-02-28T14:52:17;19.80;;;16.27;;
7983;SDS011;4037;47.980;10.172;2023-02-28T14:54:43;20.03;;;14.63;;
7983;SDS011;4037;47.980;10.172;2023-02-28T15:00:03;17.97;;;14.20;;
7983;SDS011;4037;47.980;10.172;2023-02-28T15:02:33;19.00;;;14.60;;
7983;SDS011;4037;47.980;10.172;2023-02-28T15:05:01;19.37;;;15.20;;
7983;SDS011;4037;47.980;10.172;2023-02-28T15:07:27;21.10;;;14.53;;
7983;SDS011;4037;47.980;10.172;2023-02-28T15:12:55;20.40;;;14.73;;
7983;SDS011;4037;47.980;10.172;2023-02-28T15:15:22;19.63;;;14.53;;
7983;SDS011;4037;47.980;10.172;2023-02-28T15:17:50;19.27;;;14.67;;
7983;SDS011;4037;47.980;10.172;2023-02-28T15:20:18;21.30;;;15.47;;
7983;SDS011;4037;47.980;10.172;2023-02-28T15:22:44;21.83;;;14.97;;
7983;SDS011;4037;47.980;10.172;2023-02-28T15:25:13;20.47;;;15.13;;
7983;SDS011;4037;47.980;10.172;2023-02-28T15:27:42;20.07;;;15.90;;
7983;SDS011;4037;47.980;10.172;2023-02-28T15:30:15;24.07;;;15.53;;
7983;SDS011;4037;47.980;10.172;2023-02-28T15:32:42;17.67;;;14.80;;
7983;SDS011;4037;47.980;10.172;2023-02-28T15:42:57;20.10;;;15.77;;
7983;SDS011;4037;47.980;10.172;2023-02-28T15:46:06;16.67;;;14.93;;
7983;SDS011;4037;47.980;10.172;2023-02-28T15:48:14;18.13;;;14.97;;
7983;SDS011;4037;47.980;10.172;2023-02-28T15:50:41;19.87;;;15.07;;
7983;SDS011;4037;47.980;10.172;2023-02-28T15:53:14;19.63;;;13.63;;
7983;SDS011;4037;47.980;10.172;2023-02-28T15:55:41;16.33;;;13.83;;
7983;SDS011;4037;47.980;10.172;2023-02-28T15:58:08;23.43;;;15.33;;
7983;SDS011;4037;47.980;10.172;2023-02-28T16:00:38;20.50;;;15.07;;
7983;SDS011;4037;47.980;10.172;2023-02-28T16:03:23;21.90;;;15.07;;
7983;SDS011;4037;47.980;10.172;2023-02-28T16:06:07;22.80;;;15.73;;
7983;SDS011;4037;47.980;10.172;2023-02-28T16:08:33;20.37;;;14.83;;
7983;SDS011;4037;47.980;10.172;2023-02-28T16:10:59;20.83;;;15.17;;
7983;SDS011;4037;47.980;10.172;2023-02-28T16:13:25;17.63;;;14.20;;
7983;SDS011;4037;47.980;10.172;2023-02-28T16:15:51;20.37;;;14.50;;
7983;SDS011;4037;47.980;10.172;2023-02-28T16:18:19;20.27;;;15.23;;
7983;SDS011;4037;47.980;10.172;2023-02-28T16:20:45;18.30;;;14.47;;
7983;SDS011;4037;47.980;10.172;2023-02-28T16:23:11;18.50;;;14.37;;
7983;SDS011;4037;47.980;10.172;2023-02-28T16:25:42;21.07;;;14.63;;
7983;SDS011;4037;47.980;10.172;2023-02-28T16:28:12;17.07;;;13.50;;
7983;SDS011;4037;47.980;10.172;2023-02-28T16:30:39;20.73;;;14.73;;
7983;SDS011;4037;47.980;10.172;2023-02-28T16:33:07;22.37;;;15.83;;
7983;SDS011;4037;47.980;10.172;2023-02-28T16:35:33;17.27;;;14.27;;
7983;SDS011;4037;47.980;10.172;2023-02-28T16:37:59;21.83;;;17.37;;
7983;SDS011;4037;47.980;10.172;2023-02-28T16:40:26;20.17;;;16.53;;
7983;SDS011;4037;47.980;10.172;2023-02-28T16:42:55;26.47;;;18.30;;
7983;SDS011;4037;47.980;10.172;2023-02-28T16:45:25;26.17;;;20.70;;
7983;SDS011;4037;47.980;10.172;2023-02-28T16:47:52;22.87;;;18.70;;
7983;SDS011;4037;47.980;10.172;2023-02-28T16:50:28;24.87;;;17.73;;
7983;SDS011;4037;47.980;10.172;2023-02-28T16:52:54;28.80;;;18.63;;
7983;SDS011;4037;47.980;10.172;2023-02-28T16:55:21;25.67;;;19.00;;
7983;SDS011;4037;47.980;10.172;2023-02-28T16:57:49;28.53;;;20.17;;
7983;SDS011;4037;47.980;10.172;2023-02-28T17:00:16;27.13;;;20.20;;
7983;SDS011;4037;47.980;10.172;2023-02-28T17:02:42;21.20;;;17.27;;
7983;SDS011;4037;47.980;10.172;2023-02-28T17:05:10;25.50;;;17.23;;
7983;SDS011;4037;47.980;10.172;2023-02-28T17:07:36;23.40;;;16.97;;
7983;SDS011;4037;47.980;10.172;2023-02-28T17:10:08;25.53;;;17.67;;
7983;SDS011;4037;47.980;10.172;2023-02-28T17:12:36;24.10;;;18.57;;
7983;SDS011;4037;47.980;10.172;2023-02-28T17:15:02;30.87;;;18.97;;
7983;SDS011;4037;47.980;10.172;2023-02-28T17:17:28;24.63;;;18.20;;
7983;SDS011;4037;47.980;10.172;2023-02-28T17:19:54;24.50;;;17.93;;
7983;SDS011;4037;47.980;10.172;2023-02-28T17:22:20;27.63;;;18.13;;
7983;SDS011;4037;47.980;10.172;2023-02-28T17:24:46;28.77;;;19.50;;